sensor_id;sensor_type;location;lat;lon;timestamp;temperature;humidity
13328;DHT22;6733;51.044;3.746;2022-08-01T00:00:46;19.90;99.90
13328;DHT22;6733;51.044;3.746;2022-08-01T00:03:12;19.90;99.90
13328;DHT22;6733;51.044;3.746;2022-08-01T00:05:38;19.80;99.90
13328;DHT22;6733;51.044;3.746;2022-08-01T00:08:05;19.80;99.90
13328;DHT22;6733;51.044;3.746;2022-08-01T00:10:31;19.90;99.90
13328;DHT22;6733;51.044;3.746;2022-08-01T00:12:57;19.90;99.90
13328;DHT22;6733;51.044;3.746;2022-08-01T00:15:23;19.80;99.90
13328;DHT22;6733;51.044;3.746;2022-08-01T00:17:49;19.80;99.90
13328;DHT22;6733;51.044;3.746;2022-08-01T00:20:15;19.80;99.90
13328;DHT22;6733;51.044;3.746;2022-08-01T00:22:41;19.70;99.90
13328;DHT22;6733;51.044;3.746;2022-08-01T00:25:08;19.80;99.90
13328;DHT22;6733;51.044;3.746;2022-08-01T00:27:34;19.70;99.90
13328;DHT22;6733;51.044;3.746;2022-08-01T00:30:01;19.80;99.90
13328;DHT22;6733;51.044;3.746;2022-08-01T00:32:29;19.70;99.90
13328;DHT22;6733;51.044;3.746;2022-08-01T00:34:55;19.60;99.90
13328;DHT22;6733;51.044;3.746;2022-08-01T00:37:21;19.70;99.90
13328;DHT22;6733;51.044;3.746;2022-08-01T00:39:47;19.80;99.90
13328;DHT22;6733;51.044;3.746;2022-08-01T00:42:13;19.80;99.90
13328;DHT22;6733;51.044;3.746;2022-08-01T00:44:39;19.70;99.90
13328;DHT22;6733;51.044;3.746;2022-08-01T00:47:06;19.80;99.90
13328;DHT22;6733;51.044;3.746;2022-08-01T00:49:33;19.80;99.90
13328;DHT22;6733;51.044;3.746;2022-08-01T00:52:00;19.80;99.90
13328;DHT22;6733;51.044;3.746;2022-08-01T00:54:26;19.80;99.90
13328;DHT22;6733;51.044;3.746;2022-08-01T00:56:53;19.70;99.90
13328;DHT22;6733;51.044;3.746;2022-08-01T00:59:21;19.70;99.90
13328;DHT22;6733;51.044;3.746;2022-08-01T01:01:48;19.70;99.90
13328;DHT22;6733;51.044;3.746;2022-08-01T01:04:15;19.70;99.90
13328;DHT22;6733;51.044;3.746;2022-08-01T01:14:36;19.70;99.90
13328;DHT22;6733;51.044;3.746;2022-08-01T01:17:07;19.60;99.90
13328;DHT22;6733;51.044;3.746;2022-08-01T01:19:37;19.50;99.90
13328;DHT22;6733;51.044;3.746;2022-08-01T01:25:08;19.60;99.90
13328;DHT22;6733;51.044;3.746;2022-08-01T01:30:28;19.50;99.90
13328;DHT22;6733;51.044;3.746;2022-08-01T01:32:58;19.50;99.90
13328;DHT22;6733;51.044;3.746;2022-08-01T01:35:32;19.50;99.90
13328;DHT22;6733;51.044;3.746;2022-08-01T01:38:12;19.40;99.90
13328;DHT22;6733;51.044;3.746;2022-08-01T01:40:41;19.50;99.90
13328;DHT22;6733;51.044;3.746;2022-08-01T01:43:10;19.50;99.90
13328;DHT22;6733;51.044;3.746;2022-08-01T01:45:37;19.50;99.90
13328;DHT22;6733;51.044;3.746;2022-08-01T01:48:05;19.50;99.90
13328;DHT22;6733;51.044;3.746;2022-08-01T01:50:33;19.50;99.90
13328;DHT22;6733;51.044;3.746;2022-08-01T01:53:02;19.30;99.90
13328;DHT22;6733;51.044;3.746;2022-08-01T01:55:30;19.30;99.90
13328;DHT22;6733;51.044;3.746;2022-08-01T01:57:57;19.10;99.90
13328;DHT22;6733;51.044;3.746;2022-08-01T02:00:24;19.10;99.90
13328;DHT22;6733;51.044;3.746;2022-08-01T02:02:53;19.00;99.90
13328;DHT22;6733;51.044;3.746;2022-08-01T02:05:20;19.00;99.90
13328;DHT22;6733;51.044;3.746;2022-08-01T02:07:47;18.80;99.90
13328;DHT22;6733;51.044;3.746;2022-08-01T02:10:16;18.80;99.90
13328;DHT22;6733;51.044;3.746;2022-08-01T02:12:44;18.80;99.90
13328;DHT22;6733;51.044;3.746;2022-08-01T02:15:12;18.80;99.90
13328;DHT22;6733;51.044;3.746;2022-08-01T02:17:47;18.80;99.90
13328;DHT22;6733;51.044;3.746;2022-08-01T02:20:14;18.80;99.90
13328;DHT22;6733;51.044;3.746;2022-08-01T02:22:54;18.80;99.90
13328;DHT22;6733;51.044;3.746;2022-08-01T02:25:38;18.90;99.90
13328;DHT22;6733;51.044;3.746;2022-08-01T02:28:09;18.90;99.90
13328;DHT22;6733;51.044;3.746;2022-08-01T02:30:38;18.90;99.90
13328;DHT22;6733;51.044;3.746;2022-08-01T02:33:29;18.90;99.90
13328;DHT22;6733;51.044;3.746;2022-08-01T02:36:01;19.00;99.90
13328;DHT22;6733;51.044;3.746;2022-08-01T02:38:32;19.00;99.90
13328;DHT22;6733;51.044;3.746;2022-08-01T02:41:07;18.90;99.90
13328;DHT22;6733;51.044;3.746;2022-08-01T02:43:37;18.90;99.90
13328;DHT22;6733;51.044;3.746;2022-08-01T02:46:05;19.00;99.90
13328;DHT22;6733;51.044;3.746;2022-08-01T02:48:34;19.00;99.90
13328;DHT22;6733;51.044;3.746;2022-08-01T02:51:03;19.00;99.90
13328;DHT22;6733;51.044;3.746;2022-08-01T02:53:32;19.00;99.90
13328;DHT22;6733;51.044;3.746;2022-08-01T02:56:05;19.00;99.90
13328;DHT22;6733;51.044;3.746;2022-08-01T02:58:33;19.10;99.90
13328;DHT22;6733;51.044;3.746;2022-08-01T03:01:02;19.00;99.90
13328;DHT22;6733;51.044;3.746;2022-08-01T03:03:29;19.10;99.90
13328;DHT22;6733;51.044;3.746;2022-08-01T03:05:57;19.10;99.90
13328;DHT22;6733;51.044;3.746;2022-08-01T03:08:24;19.20;99.90
13328;DHT22;6733;51.044;3.746;2022-08-01T03:10:52;19.10;99.90
13328;DHT22;6733;51.044;3.746;2022-08-01T03:13:20;19.10;99.90
13328;DHT22;6733;51.044;3.746;2022-08-01T03:15:47;19.20;99.90
13328;DHT22;6733;51.044;3.746;2022-08-01T03:18:15;19.20;99.90
13328;DHT22;6733;51.044;3.746;2022-08-01T03:20:42;19.10;99.90
13328;DHT22;6733;51.044;3.746;2022-08-01T03:23:11;19.10;99.90
13328;DHT22;6733;51.044;3.746;2022-08-01T03:25:39;19.10;99.90
13328;DHT22;6733;51.044;3.746;2022-08-01T03:28:08;19.10;99.90
13328;DHT22;6733;51.044;3.746;2022-08-01T03:30:36;19.20;99.90
13328;DHT22;6733;51.044;3.746;2022-08-01T03:33:03;19.10;99.90
13328;DHT22;6733;51.044;3.746;2022-08-01T03:35:33;19.10;99.90
13328;DHT22;6733;51.044;3.746;2022-08-01T03:38:00;19.10;99.90
13328;DHT22;6733;51.044;3.746;2022-08-01T03:40:34;19.10;99.90
13328;DHT22;6733;51.044;3.746;2022-08-01T03:43:15;19.10;99.90
13328;DHT22;6733;51.044;3.746;2022-08-01T03:45:51;19.10;99.90
13328;DHT22;6733;51.044;3.746;2022-08-01T03:48:22;19.10;99.90
13328;DHT22;6733;51.044;3.746;2022-08-01T03:50:53;19.10;99.90
13328;DHT22;6733;51.044;3.746;2022-08-01T03:53:23;19.10;99.90
13328;DHT22;6733;51.044;3.746;2022-08-01T03:55:51;19.10;99.90
13328;DHT22;6733;51.044;3.746;2022-08-01T03:58:19;19.10;99.90
13328;DHT22;6733;51.044;3.746;2022-08-01T04:00:45;19.10;99.90
13328;DHT22;6733;51.044;3.746;2022-08-01T04:03:12;19.10;99.90
13328;DHT22;6733;51.044;3.746;2022-08-01T04:05:42;19.10;99.90
13328;DHT22;6733;51.044;3.746;2022-08-01T04:08:08;19.00;99.90
13328;DHT22;6733;51.044;3.746;2022-08-01T04:10:34;19.10;99.90
13328;DHT22;6733;51.044;3.746;2022-08-01T04:13:01;19.10;99.90
13328;DHT22;6733;51.044;3.746;2022-08-01T04:15:27;19.10;99.90
13328;DHT22;6733;51.044;3.746;2022-08-01T04:17:54;19.10;99.90
13328;DHT22;6733;51.044;3.746;2022-08-01T04:20:20;19.10;99.90
13328;DHT22;6733;51.044;3.746;2022-08-01T04:22:47;19.10;99.90
13328;DHT22;6733;51.044;3.746;2022-08-01T04:25:29;19.10;99.90
13328;DHT22;6733;51.044;3.746;2022-08-01T04:28:00;19.10;99.90
13328;DHT22;6733;51.044;3.746;2022-08-01T04:30:32;19.10;99.90
13328;DHT22;6733;51.044;3.746;2022-08-01T04:33:01;19.10;99.90
13328;DHT22;6733;51.044;3.746;2022-08-01T04:35:28;19.10;99.90
13328;DHT22;6733;51.044;3.746;2022-08-01T04:37:56;19.10;99.90
13328;DHT22;6733;51.044;3.746;2022-08-01T04:40:23;19.00;99.90
13328;DHT22;6733;51.044;3.746;2022-08-01T04:42:52;19.10;99.90
13328;DHT22;6733;51.044;3.746;2022-08-01T04:45:18;19.10;99.90
13328;DHT22;6733;51.044;3.746;2022-08-01T04:47:45;19.10;99.90
13328;DHT22;6733;51.044;3.746;2022-08-01T04:50:13;19.10;99.90
13328;DHT22;6733;51.044;3.746;2022-08-01T04:52:39;19.10;99.90
13328;DHT22;6733;51.044;3.746;2022-08-01T04:55:08;19.20;99.90
13328;DHT22;6733;51.044;3.746;2022-08-01T04:57:36;19.30;99.90
13328;DHT22;6733;51.044;3.746;2022-08-01T05:00:03;19.30;99.90
13328;DHT22;6733;51.044;3.746;2022-08-01T05:02:30;19.30;99.90
13328;DHT22;6733;51.044;3.746;2022-08-01T05:04:56;19.30;99.90
13328;DHT22;6733;51.044;3.746;2022-08-01T05:07:22;19.20;99.90
13328;DHT22;6733;51.044;3.746;2022-08-01T05:09:48;19.20;99.90
13328;DHT22;6733;51.044;3.746;2022-08-01T05:12:14;19.20;99.90
13328;DHT22;6733;51.044;3.746;2022-08-01T05:14:41;19.20;99.90
13328;DHT22;6733;51.044;3.746;2022-08-01T05:17:08;19.20;99.90
13328;DHT22;6733;51.044;3.746;2022-08-01T05:19:35;19.30;99.90
13328;DHT22;6733;51.044;3.746;2022-08-01T05:22:04;19.30;99.90
13328;DHT22;6733;51.044;3.746;2022-08-01T05:24:31;19.30;99.90
13328;DHT22;6733;51.044;3.746;2022-08-01T05:26:58;19.40;99.90
13328;DHT22;6733;51.044;3.746;2022-08-01T05:29:25;19.40;99.90
13328;DHT22;6733;51.044;3.746;2022-08-01T05:31:52;19.50;99.90
13328;DHT22;6733;51.044;3.746;2022-08-01T05:34:18;19.50;99.90
13328;DHT22;6733;51.044;3.746;2022-08-01T05:36:45;19.60;99.90
13328;DHT22;6733;51.044;3.746;2022-08-01T05:39:12;19.60;99.90
13328;DHT22;6733;51.044;3.746;2022-08-01T05:41:38;19.70;99.90
13328;DHT22;6733;51.044;3.746;2022-08-01T05:44:05;19.80;99.90
13328;DHT22;6733;51.044;3.746;2022-08-01T05:46:32;19.70;99.90
13328;DHT22;6733;51.044;3.746;2022-08-01T05:49:00;19.70;99.90
13328;DHT22;6733;51.044;3.746;2022-08-01T05:51:27;19.70;99.90
13328;DHT22;6733;51.044;3.746;2022-08-01T05:53:53;19.80;99.90
13328;DHT22;6733;51.044;3.746;2022-08-01T05:56:20;19.60;99.90
13328;DHT22;6733;51.044;3.746;2022-08-01T05:58:48;19.70;99.90
13328;DHT22;6733;51.044;3.746;2022-08-01T06:01:15;19.60;99.90
13328;DHT22;6733;51.044;3.746;2022-08-01T06:03:41;19.70;99.90
13328;DHT22;6733;51.044;3.746;2022-08-01T06:06:07;19.70;99.90
13328;DHT22;6733;51.044;3.746;2022-08-01T06:08:34;19.70;99.90
13328;DHT22;6733;51.044;3.746;2022-08-01T06:11:00;19.80;99.90
13328;DHT22;6733;51.044;3.746;2022-08-01T06:13:26;19.90;99.90
13328;DHT22;6733;51.044;3.746;2022-08-01T06:15:52;20.00;99.90
13328;DHT22;6733;51.044;3.746;2022-08-01T06:18:19;20.00;99.90
13328;DHT22;6733;51.044;3.746;2022-08-01T06:20:46;20.20;99.90
13328;DHT22;6733;51.044;3.746;2022-08-01T06:23:12;20.20;99.90
13328;DHT22;6733;51.044;3.746;2022-08-01T06:25:39;20.30;99.90
13328;DHT22;6733;51.044;3.746;2022-08-01T06:28:05;20.30;99.90
13328;DHT22;6733;51.044;3.746;2022-08-01T06:30:31;20.30;99.90
13328;DHT22;6733;51.044;3.746;2022-08-01T06:32:57;20.30;99.90
13328;DHT22;6733;51.044;3.746;2022-08-01T06:35:27;20.30;99.90
13328;DHT22;6733;51.044;3.746;2022-08-01T06:37:56;20.30;99.90
13328;DHT22;6733;51.044;3.746;2022-08-01T06:40:22;20.30;99.90
13328;DHT22;6733;51.044;3.746;2022-08-01T06:42:49;20.40;99.90
13328;DHT22;6733;51.044;3.746;2022-08-01T06:45:15;20.40;99.90
13328;DHT22;6733;51.044;3.746;2022-08-01T06:47:43;20.50;99.90
13328;DHT22;6733;51.044;3.746;2022-08-01T06:50:09;20.60;99.90
13328;DHT22;6733;51.044;3.746;2022-08-01T06:52:36;20.50;99.90
13328;DHT22;6733;51.044;3.746;2022-08-01T06:55:03;20.50;99.90
13328;DHT22;6733;51.044;3.746;2022-08-01T06:57:30;20.70;99.90
13328;DHT22;6733;51.044;3.746;2022-08-01T06:59:56;20.70;99.90
13328;DHT22;6733;51.044;3.746;2022-08-01T07:02:23;20.70;99.90
13328;DHT22;6733;51.044;3.746;2022-08-01T07:04:49;20.80;99.90
13328;DHT22;6733;51.044;3.746;2022-08-01T07:07:15;20.90;99.90
13328;DHT22;6733;51.044;3.746;2022-08-01T07:09:41;20.90;99.90
13328;DHT22;6733;51.044;3.746;2022-08-01T07:12:08;20.90;99.90
13328;DHT22;6733;51.044;3.746;2022-08-01T07:14:34;21.00;99.90
13328;DHT22;6733;51.044;3.746;2022-08-01T07:17:00;21.40;99.90
13328;DHT22;6733;51.044;3.746;2022-08-01T07:19:27;21.60;99.90
13328;DHT22;6733;51.044;3.746;2022-08-01T07:21:53;21.60;99.90
13328;DHT22;6733;51.044;3.746;2022-08-01T07:24:19;21.50;99.90
13328;DHT22;6733;51.044;3.746;2022-08-01T07:26:47;21.60;99.90
13328;DHT22;6733;51.044;3.746;2022-08-01T07:29:14;21.60;99.90
13328;DHT22;6733;51.044;3.746;2022-08-01T07:31:40;21.50;99.90
13328;DHT22;6733;51.044;3.746;2022-08-01T07:34:07;21.40;99.90
13328;DHT22;6733;51.044;3.746;2022-08-01T07:36:33;21.50;99.90
13328;DHT22;6733;51.044;3.746;2022-08-01T07:38:59;21.60;99.90
13328;DHT22;6733;51.044;3.746;2022-08-01T07:41:25;21.60;99.90
13328;DHT22;6733;51.044;3.746;2022-08-01T07:43:51;21.60;99.90
13328;DHT22;6733;51.044;3.746;2022-08-01T07:46:18;21.80;99.90
13328;DHT22;6733;51.044;3.746;2022-08-01T07:48:44;22.20;99.90
13328;DHT22;6733;51.044;3.746;2022-08-01T07:51:10;22.00;99.90
13328;DHT22;6733;51.044;3.746;2022-08-01T07:53:37;21.70;99.90
13328;DHT22;6733;51.044;3.746;2022-08-01T07:56:05;22.20;99.90
13328;DHT22;6733;51.044;3.746;2022-08-01T07:58:33;22.70;99.90
13328;DHT22;6733;51.044;3.746;2022-08-01T08:00:59;22.80;99.90
13328;DHT22;6733;51.044;3.746;2022-08-01T08:03:25;23.30;99.90
13328;DHT22;6733;51.044;3.746;2022-08-01T08:05:52;23.50;99.90
13328;DHT22;6733;51.044;3.746;2022-08-01T08:08:18;23.50;99.90
13328;DHT22;6733;51.044;3.746;2022-08-01T08:10:45;24.00;99.90
13328;DHT22;6733;51.044;3.746;2022-08-01T08:13:11;24.20;99.90
13328;DHT22;6733;51.044;3.746;2022-08-01T08:15:37;24.10;99.90
13328;DHT22;6733;51.044;3.746;2022-08-01T08:18:04;23.50;99.90
13328;DHT22;6733;51.044;3.746;2022-08-01T08:20:30;23.50;99.90
13328;DHT22;6733;51.044;3.746;2022-08-01T08:22:57;23.20;99.90
13328;DHT22;6733;51.044;3.746;2022-08-01T08:25:26;23.10;99.90
13328;DHT22;6733;51.044;3.746;2022-08-01T08:27:54;23.10;99.90
13328;DHT22;6733;51.044;3.746;2022-08-01T08:30:21;23.40;99.90
13328;DHT22;6733;51.044;3.746;2022-08-01T08:32:47;23.40;99.90
13328;DHT22;6733;51.044;3.746;2022-08-01T08:35:13;23.60;99.90
13328;DHT22;6733;51.044;3.746;2022-08-01T08:37:39;23.70;99.90
13328;DHT22;6733;51.044;3.746;2022-08-01T08:40:06;23.60;99.90
13328;DHT22;6733;51.044;3.746;2022-08-01T08:42:33;23.10;99.90
13328;DHT22;6733;51.044;3.746;2022-08-01T08:45:00;22.90;99.90
13328;DHT22;6733;51.044;3.746;2022-08-01T08:47:27;23.00;99.90
13328;DHT22;6733;51.044;3.746;2022-08-01T08:49:55;23.50;99.90
13328;DHT22;6733;51.044;3.746;2022-08-01T08:52:22;23.60;99.90
13328;DHT22;6733;51.044;3.746;2022-08-01T08:54:50;23.70;99.90
13328;DHT22;6733;51.044;3.746;2022-08-01T08:57:19;23.70;99.90
13328;DHT22;6733;51.044;3.746;2022-08-01T08:59:46;24.70;99.90
13328;DHT22;6733;51.044;3.746;2022-08-01T09:02:13;25.40;99.90
13328;DHT22;6733;51.044;3.746;2022-08-01T09:04:39;24.80;99.90
13328;DHT22;6733;51.044;3.746;2022-08-01T09:07:06;24.60;99.90
13328;DHT22;6733;51.044;3.746;2022-08-01T09:09:33;24.80;99.90
13328;DHT22;6733;51.044;3.746;2022-08-01T09:12:00;24.30;99.90
13328;DHT22;6733;51.044;3.746;2022-08-01T09:14:27;24.00;99.90
13328;DHT22;6733;51.044;3.746;2022-08-01T09:17:06;24.00;99.90
13328;DHT22;6733;51.044;3.746;2022-08-01T09:19:39;24.00;99.90
13328;DHT22;6733;51.044;3.746;2022-08-01T09:22:08;23.70;99.90
13328;DHT22;6733;51.044;3.746;2022-08-01T09:24:34;23.70;99.90
13328;DHT22;6733;51.044;3.746;2022-08-01T09:27:16;24.50;99.90
13328;DHT22;6733;51.044;3.746;2022-08-01T09:29:42;24.70;99.90
13328;DHT22;6733;51.044;3.746;2022-08-01T09:32:10;25.00;99.90
13328;DHT22;6733;51.044;3.746;2022-08-01T09:34:36;25.70;99.90
13328;DHT22;6733;51.044;3.746;2022-08-01T09:37:03;26.30;99.90
13328;DHT22;6733;51.044;3.746;2022-08-01T09:39:35;25.80;99.90
13328;DHT22;6733;51.044;3.746;2022-08-01T09:42:23;25.70;99.90
13328;DHT22;6733;51.044;3.746;2022-08-01T09:44:51;25.20;99.90
13328;DHT22;6733;51.044;3.746;2022-08-01T09:47:19;25.10;99.90
13328;DHT22;6733;51.044;3.746;2022-08-01T09:49:54;25.00;99.90
13328;DHT22;6733;51.044;3.746;2022-08-01T09:52:23;24.70;99.90
13328;DHT22;6733;51.044;3.746;2022-08-01T09:54:57;24.60;99.90
13328;DHT22;6733;51.044;3.746;2022-08-01T09:57:25;24.60;99.90
13328;DHT22;6733;51.044;3.746;2022-08-01T09:59:53;24.80;99.90
13328;DHT22;6733;51.044;3.746;2022-08-01T10:02:30;25.10;99.90
13328;DHT22;6733;51.044;3.746;2022-08-01T10:04:57;24.50;99.90
13328;DHT22;6733;51.044;3.746;2022-08-01T10:07:24;24.80;99.90
13328;DHT22;6733;51.044;3.746;2022-08-01T10:09:50;24.80;99.90
13328;DHT22;6733;51.044;3.746;2022-08-01T10:12:18;24.50;99.90
13328;DHT22;6733;51.044;3.746;2022-08-01T10:14:47;24.70;99.90
13328;DHT22;6733;51.044;3.746;2022-08-01T10:17:18;24.90;99.90
13328;DHT22;6733;51.044;3.746;2022-08-01T10:19:45;25.50;99.90
13328;DHT22;6733;51.044;3.746;2022-08-01T10:22:13;25.70;99.90
13328;DHT22;6733;51.044;3.746;2022-08-01T10:24:44;26.00;99.90
13328;DHT22;6733;51.044;3.746;2022-08-01T10:27:14;25.90;99.90
13328;DHT22;6733;51.044;3.746;2022-08-01T10:32:14;25.80;99.90
13328;DHT22;6733;51.044;3.746;2022-08-01T10:34:42;25.40;99.90
13328;DHT22;6733;51.044;3.746;2022-08-01T10:37:09;25.80;99.90
13328;DHT22;6733;51.044;3.746;2022-08-01T10:39:35;25.80;99.90
13328;DHT22;6733;51.044;3.746;2022-08-01T10:42:02;25.30;99.90
13328;DHT22;6733;51.044;3.746;2022-08-01T10:44:30;25.10;99.90
13328;DHT22;6733;51.044;3.746;2022-08-01T10:47:12;25.20;99.90
13328;DHT22;6733;51.044;3.746;2022-08-01T10:49:53;25.20;99.90
13328;DHT22;6733;51.044;3.746;2022-08-01T10:52:21;25.80;99.90
13328;DHT22;6733;51.044;3.746;2022-08-01T10:54:47;25.90;99.90
13328;DHT22;6733;51.044;3.746;2022-08-01T10:57:13;26.70;99.90
13328;DHT22;6733;51.044;3.746;2022-08-01T10:59:50;26.60;99.90
13328;DHT22;6733;51.044;3.746;2022-08-01T11:02:31;26.50;99.90
13328;DHT22;6733;51.044;3.746;2022-08-01T11:05:10;26.80;99.90
13328;DHT22;6733;51.044;3.746;2022-08-01T11:07:42;27.00;99.90
13328;DHT22;6733;51.044;3.746;2022-08-01T11:10:21;27.00;99.90
13328;DHT22;6733;51.044;3.746;2022-08-01T11:12:48;26.30;99.90
13328;DHT22;6733;51.044;3.746;2022-08-01T11:17:46;25.60;99.90
13328;DHT22;6733;51.044;3.746;2022-08-01T11:20:25;25.50;99.90
13328;DHT22;6733;51.044;3.746;2022-08-01T11:30:48;26.80;99.90
13328;DHT22;6733;51.044;3.746;2022-08-01T11:33:16;27.30;99.90
13328;DHT22;6733;51.044;3.746;2022-08-01T11:38:45;27.20;99.90
13328;DHT22;6733;51.044;3.746;2022-08-01T11:44:03;26.90;99.90
13328;DHT22;6733;51.044;3.746;2022-08-01T11:46:58;27.10;99.90
13328;DHT22;6733;51.044;3.746;2022-08-01T11:54:34;27.20;99.90
13328;DHT22;6733;51.044;3.746;2022-08-01T11:57:03;26.80;99.90
13328;DHT22;6733;51.044;3.746;2022-08-01T11:59:46;27.10;99.90
13328;DHT22;6733;51.044;3.746;2022-08-01T12:02:29;27.00;99.90
13328;DHT22;6733;51.044;3.746;2022-08-01T12:05:10;27.50;99.90
13328;DHT22;6733;51.044;3.746;2022-08-01T12:07:38;28.00;99.90
13328;DHT22;6733;51.044;3.746;2022-08-01T12:10:13;27.90;99.90
13328;DHT22;6733;51.044;3.746;2022-08-01T12:12:44;27.40;99.90
13328;DHT22;6733;51.044;3.746;2022-08-01T12:15:12;27.10;99.90
13328;DHT22;6733;51.044;3.746;2022-08-01T12:17:43;26.90;99.90
13328;DHT22;6733;51.044;3.746;2022-08-01T12:20:14;27.10;99.90
13328;DHT22;6733;51.044;3.746;2022-08-01T12:22:41;27.20;99.90
13328;DHT22;6733;51.044;3.746;2022-08-01T12:25:13;27.90;99.90
13328;DHT22;6733;51.044;3.746;2022-08-01T12:27:41;27.60;99.90
13328;DHT22;6733;51.044;3.746;2022-08-01T12:30:10;27.70;99.90
13328;DHT22;6733;51.044;3.746;2022-08-01T12:32:39;27.80;99.90
13328;DHT22;6733;51.044;3.746;2022-08-01T12:35:11;27.80;99.90
13328;DHT22;6733;51.044;3.746;2022-08-01T12:38:00;28.10;99.90
13328;DHT22;6733;51.044;3.746;2022-08-01T12:40:29;28.00;99.90
13328;DHT22;6733;51.044;3.746;2022-08-01T12:42:59;27.40;99.90
13328;DHT22;6733;51.044;3.746;2022-08-01T12:45:30;27.60;99.90
13328;DHT22;6733;51.044;3.746;2022-08-01T12:47:58;27.20;99.90
13328;DHT22;6733;51.044;3.746;2022-08-01T12:50:28;27.80;99.90
13328;DHT22;6733;51.044;3.746;2022-08-01T12:52:56;28.30;99.90
13328;DHT22;6733;51.044;3.746;2022-08-01T12:55:25;27.60;99.90
13328;DHT22;6733;51.044;3.746;2022-08-01T12:58:09;27.20;99.90
13328;DHT22;6733;51.044;3.746;2022-08-01T13:00:36;26.90;99.90
13328;DHT22;6733;51.044;3.746;2022-08-01T13:03:13;27.00;99.90
13328;DHT22;6733;51.044;3.746;2022-08-01T13:05:51;27.90;99.90
13328;DHT22;6733;51.044;3.746;2022-08-01T13:11:11;27.90;99.90
13328;DHT22;6733;51.044;3.746;2022-08-01T13:13:41;27.00;99.90
13328;DHT22;6733;51.044;3.746;2022-08-01T13:16:09;27.20;99.90
13328;DHT22;6733;51.044;3.746;2022-08-01T13:18:36;27.30;99.90
13328;DHT22;6733;51.044;3.746;2022-08-01T13:21:13;27.10;99.90
13328;DHT22;6733;51.044;3.746;2022-08-01T13:24:08;27.30;99.90
13328;DHT22;6733;51.044;3.746;2022-08-01T13:29:05;27.00;99.90
13328;DHT22;6733;51.044;3.746;2022-08-01T13:31:33;26.90;99.90
13328;DHT22;6733;51.044;3.746;2022-08-01T13:34:00;27.00;99.90
13328;DHT22;6733;51.044;3.746;2022-08-01T13:36:26;27.20;99.90
13328;DHT22;6733;51.044;3.746;2022-08-01T13:38:58;27.90;99.90
13328;DHT22;6733;51.044;3.746;2022-08-01T13:41:43;27.70;99.90
13328;DHT22;6733;51.044;3.746;2022-08-01T13:44:10;27.70;99.90
13328;DHT22;6733;51.044;3.746;2022-08-01T13:46:37;26.90;99.90
13328;DHT22;6733;51.044;3.746;2022-08-01T13:49:05;27.30;99.90
13328;DHT22;6733;51.044;3.746;2022-08-01T13:51:32;27.00;99.90
13328;DHT22;6733;51.044;3.746;2022-08-01T13:53:58;26.80;99.90
13328;DHT22;6733;51.044;3.746;2022-08-01T13:56:25;27.60;99.90
13328;DHT22;6733;51.044;3.746;2022-08-01T13:58:54;27.80;99.90
13328;DHT22;6733;51.044;3.746;2022-08-01T14:01:20;28.00;99.20
13328;DHT22;6733;51.044;3.746;2022-08-01T14:03:47;28.70;98.50
13328;DHT22;6733;51.044;3.746;2022-08-01T14:06:14;28.80;98.70
13328;DHT22;6733;51.044;3.746;2022-08-01T14:08:42;29.40;98.80
13328;DHT22;6733;51.044;3.746;2022-08-01T14:11:09;29.30;98.50
13328;DHT22;6733;51.044;3.746;2022-08-01T14:13:35;29.70;98.00
13328;DHT22;6733;51.044;3.746;2022-08-01T14:16:05;29.70;98.00
13328;DHT22;6733;51.044;3.746;2022-08-01T14:18:31;30.30;96.60
13328;DHT22;6733;51.044;3.746;2022-08-01T14:20:57;30.80;96.00
13328;DHT22;6733;51.044;3.746;2022-08-01T14:23:24;30.00;95.80
13328;DHT22;6733;51.044;3.746;2022-08-01T14:25:50;29.90;96.00
13328;DHT22;6733;51.044;3.746;2022-08-01T14:28:16;30.60;95.20
13328;DHT22;6733;51.044;3.746;2022-08-01T14:30:42;31.30;94.50
13328;DHT22;6733;51.044;3.746;2022-08-01T14:33:10;31.60;93.80
13328;DHT22;6733;51.044;3.746;2022-08-01T14:35:36;31.20;94.10
13328;DHT22;6733;51.044;3.746;2022-08-01T14:38:02;29.60;95.60
13328;DHT22;6733;51.044;3.746;2022-08-01T14:40:29;29.10;96.10
13328;DHT22;6733;51.044;3.746;2022-08-01T14:42:55;29.00;96.80
13328;DHT22;6733;51.044;3.746;2022-08-01T14:45:21;29.50;95.70
13328;DHT22;6733;51.044;3.746;2022-08-01T14:47:48;30.40;95.30
13328;DHT22;6733;51.044;3.746;2022-08-01T14:50:15;30.90;94.00
13328;DHT22;6733;51.044;3.746;2022-08-01T14:52:42;30.20;93.90
13328;DHT22;6733;51.044;3.746;2022-08-01T14:55:10;30.90;93.60
13328;DHT22;6733;51.044;3.746;2022-08-01T14:57:38;30.00;93.60
13328;DHT22;6733;51.044;3.746;2022-08-01T15:00:07;29.30;94.50
13328;DHT22;6733;51.044;3.746;2022-08-01T15:02:35;29.30;95.00
13328;DHT22;6733;51.044;3.746;2022-08-01T15:05:02;30.00;94.00
13328;DHT22;6733;51.044;3.746;2022-08-01T15:07:28;30.50;93.40
13328;DHT22;6733;51.044;3.746;2022-08-01T15:09:54;31.00;92.90
13328;DHT22;6733;51.044;3.746;2022-08-01T15:12:20;30.50;92.70
13328;DHT22;6733;51.044;3.746;2022-08-01T15:14:46;29.90;93.40
13328;DHT22;6733;51.044;3.746;2022-08-01T15:17:24;30.40;92.80
13328;DHT22;6733;51.044;3.746;2022-08-01T15:19:52;31.20;92.50
13328;DHT22;6733;51.044;3.746;2022-08-01T15:22:24;31.10;92.30
13328;DHT22;6733;51.044;3.746;2022-08-01T15:24:52;31.60;91.40
13328;DHT22;6733;51.044;3.746;2022-08-01T15:27:19;31.70;91.20
13328;DHT22;6733;51.044;3.746;2022-08-01T15:29:47;31.40;91.10
13328;DHT22;6733;51.044;3.746;2022-08-01T15:32:14;31.60;91.00
13328;DHT22;6733;51.044;3.746;2022-08-01T15:34:41;31.50;90.90
13328;DHT22;6733;51.044;3.746;2022-08-01T15:37:08;31.70;90.70
13328;DHT22;6733;51.044;3.746;2022-08-01T15:39:35;32.00;90.10
13328;DHT22;6733;51.044;3.746;2022-08-01T15:42:10;32.40;89.20
13328;DHT22;6733;51.044;3.746;2022-08-01T15:44:37;33.40;87.20
13328;DHT22;6733;51.044;3.746;2022-08-01T15:47:04;32.60;88.50
13328;DHT22;6733;51.044;3.746;2022-08-01T15:49:32;32.40;89.20
13328;DHT22;6733;51.044;3.746;2022-08-01T15:51:58;32.50;89.10
13328;DHT22;6733;51.044;3.746;2022-08-01T15:54:24;32.60;89.20
13328;DHT22;6733;51.044;3.746;2022-08-01T15:56:51;32.90;87.30
13328;DHT22;6733;51.044;3.746;2022-08-01T15:59:17;32.30;87.80
13328;DHT22;6733;51.044;3.746;2022-08-01T16:01:43;33.40;87.20
13328;DHT22;6733;51.044;3.746;2022-08-01T16:04:09;33.50;86.30
13328;DHT22;6733;51.044;3.746;2022-08-01T16:06:36;33.70;85.40
13328;DHT22;6733;51.044;3.746;2022-08-01T16:09:05;33.50;84.60
13328;DHT22;6733;51.044;3.746;2022-08-01T16:11:31;33.60;84.10
13328;DHT22;6733;51.044;3.746;2022-08-01T16:13:58;33.60;83.20
13328;DHT22;6733;51.044;3.746;2022-08-01T16:16:24;33.90;84.20
13328;DHT22;6733;51.044;3.746;2022-08-01T16:18:51;33.50;84.50
13328;DHT22;6733;51.044;3.746;2022-08-01T16:21:17;33.70;84.70
13328;DHT22;6733;51.044;3.746;2022-08-01T16:23:44;33.70;82.50
13328;DHT22;6733;51.044;3.746;2022-08-01T16:26:11;33.50;83.10
13328;DHT22;6733;51.044;3.746;2022-08-01T16:28:37;33.30;83.30
13328;DHT22;6733;51.044;3.746;2022-08-01T16:31:04;33.20;82.30
13328;DHT22;6733;51.044;3.746;2022-08-01T16:33:31;33.80;81.80
13328;DHT22;6733;51.044;3.746;2022-08-01T16:36:01;33.50;82.00